createdAt,value
2022-11-29T00:02:06.168Z,92.05
2022-11-29T00:04:37.679Z,88.97
2022-11-29T00:07:09.387Z,83.43
2022-11-29T00:09:43.177Z,82.43
2022-11-29T00:12:18.351Z,83.82
2022-11-29T00:14:49.549Z,87.82
2022-11-29T00:17:21.392Z,83.35
2022-11-29T00:19:52.695Z,81.85
2022-11-29T00:22:25.264Z,76.15
2022-11-29T00:24:59.280Z,77.78
2022-11-29T00:27:30.880Z,78.65
2022-11-29T00:30:02.467Z,79.20
2022-11-29T00:32:34.418Z,72.60
2022-11-29T00:35:09.672Z,76.50
2022-11-29T00:37:41.995Z,73.68
2022-11-29T00:40:16.208Z,71.45
2022-11-29T00:42:48.891Z,78.72
2022-11-29T00:45:20.459Z,75.90
2022-11-29T00:47:52.505Z,70.43
2022-11-29T00:50:24.065Z,69.53
2022-11-29T00:52:55.929Z,69.30
2022-11-29T00:55:30.092Z,70.18
2022-11-29T00:58:02.165Z,71.40
2022-11-29T01:00:33.810Z,71.82
2022-11-29T01:03:06.065Z,69.15
2022-11-29T01:05:37.590Z,70.85
2022-11-29T01:08:09.490Z,70.00
2022-11-29T01:10:43.837Z,72.03
2022-11-29T01:13:15.913Z,72.80
2022-11-29T01:15:47.476Z,72.03
2022-11-29T01:18:19.110Z,74.00
2022-11-29T01:20:59.602Z,72.32
2022-11-29T01:23:32.417Z,75.03
2022-11-29T01:26:09.884Z,72.05
2022-11-29T01:28:43.124Z,68.97
2022-11-29T01:31:16.904Z,69.80
2022-11-29T01:33:49.405Z,73.38
2022-11-29T01:36:21.096Z,74.82
2022-11-29T01:38:53.225Z,71.45
2022-11-29T01:41:29.248Z,71.00
2022-11-29T01:44:05.055Z,71.20
2022-11-29T01:46:39.090Z,76.53
2022-11-29T01:49:16.011Z,72.93
2022-11-29T01:51:52.887Z,73.32
2022-11-29T01:54:25.184Z,72.72
2022-11-29T01:57:01.911Z,70.78
2022-11-29T01:59:34.243Z,72.22
2022-11-29T02:02:10.521Z,75.57
2022-11-29T02:04:45.334Z,78.40
2022-11-29T02:07:17.371Z,71.45
2022-11-29T02:09:49.573Z,69.95
2022-11-29T02:12:38.077Z,74.38
2022-11-29T02:15:24.614Z,74.03
2022-11-29T02:18:08.307Z,71.40
2022-11-29T02:21:07.196Z,69.85
2022-11-29T02:24:14.176Z,75.70
2022-11-29T02:27:15.946Z,76.75
2022-11-29T02:30:17.593Z,70.63
2022-11-29T02:33:27.462Z,70.07
2022-11-29T02:36:19.600Z,78.18
2022-11-29T02:39:25.104Z,77.05
2022-11-29T02:42:54.404Z,70.68
2022-11-29T02:45:47.988Z,66.85
2022-11-29T02:48:48.880Z,77.45
2022-11-29T02:51:29.133Z,71.20
2022-11-29T02:54:07.793Z,78.50
2022-11-29T02:56:47.133Z,79.28
2022-11-29T02:59:39.411Z,78.13
2022-11-29T03:02:23.108Z,80.78
2022-11-29T03:05:06.421Z,79.38
2022-11-29T03:07:44.708Z,80.38
2022-11-29T03:10:29.373Z,73.38
2022-11-29T03:13:03.061Z,79.13
2022-11-29T03:15:41.734Z,73.68
2022-11-29T03:18:31.244Z,80.43
2022-11-29T03:21:13.547Z,76.32
2022-11-29T03:23:51.221Z,77.30
2022-11-29T03:26:27.437Z,84.30
2022-11-29T03:29:10.156Z,84.32
2022-11-29T03:31:49.306Z,80.55
2022-11-29T03:34:28.256Z,81.32
2022-11-29T03:37:09.438Z,77.28
2022-11-29T03:39:51.215Z,86.65
2022-11-29T03:42:28.357Z,75.65
2022-11-29T03:45:06.733Z,84.03
2022-11-29T03:47:45.936Z,80.97
2022-11-29T03:50:23.873Z,80.72
2022-11-29T03:53:06.327Z,85.30
2022-11-29T03:55:53.539Z,76.25
2022-11-29T03:58:39.055Z,76.40
2022-11-29T04:01:52.955Z,81.82
2022-11-29T04:05:03.395Z,80.78
2022-11-29T04:07:51.681Z,84.72
2022-11-29T04:11:00.338Z,78.55
2022-11-29T04:14:00.029Z,82.25
2022-11-29T04:17:01.731Z,83.50
2022-11-29T04:20:13.997Z,79.75
2022-11-29T04:23:13.917Z,85.80
2022-11-29T04:26:15.603Z,81.55
2022-11-29T04:29:14.425Z,77.38
2022-11-29T04:32:06.521Z,83.07
2022-11-29T04:35:10.279Z,90.22
2022-11-29T04:38:02.420Z,88.57
2022-11-29T04:40:45.448Z,79.43
2022-11-29T04:43:36.628Z,80.68
2022-11-29T04:46:35.360Z,82.53
2022-11-29T04:49:41.058Z,82.38
2022-11-29T04:52:35.567Z,79.07
2022-11-29T04:55:29.225Z,75.15
2022-11-29T04:58:19.191Z,84.22
2022-11-29T05:01:03.989Z,81.03
2022-11-29T05:03:44.151Z,77.20
2022-11-29T05:06:26.894Z,83.30
2022-11-29T05:09:07.772Z,79.28
2022-11-29T05:11:53.444Z,82.88
2022-11-29T05:14:38.474Z,79.03
2022-11-29T05:17:35.873Z,83.93
2022-11-29T05:20:26.415Z,85.43
2022-11-29T05:23:15.633Z,78.53
2022-11-29T05:25:54.510Z,82.20
2022-11-29T05:28:32.591Z,79.40
2022-11-29T05:31:27.218Z,76.57
2022-11-29T05:34:34.666Z,82.63
2022-11-29T05:37:22.141Z,78.82
2022-11-29T05:40:12.121Z,79.78
2022-11-29T05:43:04.193Z,80.22
2022-11-29T05:45:44.033Z,76.85
2022-11-29T05:48:22.733Z,83.55
2022-11-29T05:51:08.419Z,80.97
2022-11-29T05:53:50.373Z,79.40
2022-11-29T05:56:33.856Z,77.13
2022-11-29T05:59:11.741Z,79.32
2022-11-29T06:01:54.236Z,80.68
2022-11-29T06:04:33.149Z,72.57
2022-11-29T06:07:16.658Z,78.05
2022-11-29T06:09:53.862Z,80.05
2022-11-29T06:12:29.812Z,82.75
2022-11-29T06:15:31.733Z,78.38
2022-11-29T06:18:23.947Z,77.03
2022-11-29T06:21:05.303Z,77.55
2022-11-29T06:23:59.423Z,80.03
2022-11-29T06:26:56.284Z,77.35
2022-11-29T06:29:39.019Z,80.47
2022-11-29T06:32:25.454Z,82.78
2022-11-29T06:35:03.781Z,80.07
2022-11-29T06:37:42.250Z,78.93
2022-11-29T06:40:19.782Z,77.43
2022-11-29T06:42:51.611Z,76.68
2022-11-29T06:45:26.909Z,86.10
2022-11-29T06:48:04.817Z,72.70
2022-11-29T06:50:50.853Z,76.15
2022-11-29T06:53:31.129Z,75.38
2022-11-29T06:56:12.793Z,77.70
2022-11-29T06:58:54.646Z,79.40
2022-11-29T07:01:36.092Z,74.80
2022-11-29T07:04:45.598Z,75.68
2022-11-29T07:07:21.805Z,74.22
2022-11-29T07:09:57.276Z,75.78
2022-11-29T07:12:33.358Z,77.97
2022-11-29T07:15:05.391Z,75.85
2022-11-29T07:17:41.961Z,79.35
2022-11-29T07:20:24.780Z,75.95
2022-11-29T07:23:09.068Z,74.35
2022-11-29T07:25:50.222Z,74.22
2022-11-29T07:28:43.499Z,73.38
2022-11-29T07:31:27.515Z,73.82
2022-11-29T07:34:06.426Z,78.10
2022-11-29T07:36:48.605Z,77.75
2022-11-29T07:39:28.725Z,77.18
2022-11-29T07:42:08.526Z,71.45
2022-11-29T07:44:55.850Z,76.38
2022-11-29T07:47:30.092Z,77.85
2022-11-29T07:50:07.251Z,77.80
2022-11-29T07:52:39.417Z,77.72
2022-11-29T07:55:19.176Z,76.50
2022-11-29T07:57:52.116Z,77.30
2022-11-29T08:00:27.015Z,71.05
2022-11-29T08:02:58.805Z,77.68
2022-11-29T08:05:30.691Z,80.45
2022-11-29T08:08:03.253Z,72.43
2022-11-29T08:10:36.824Z,73.18
2022-11-29T08:13:08.466Z,76.03
2022-11-29T08:15:47.424Z,70.30
2022-11-29T08:18:19.220Z,73.38
2022-11-29T08:20:51.131Z,73.97
2022-11-29T08:23:22.760Z,73.78
2022-11-29T08:26:01.398Z,73.55
2022-11-29T08:28:55.230Z,75.72
2022-11-29T08:31:30.077Z,72.05
2022-11-29T08:34:01.712Z,75.85
2022-11-29T08:36:33.841Z,66.65
2022-11-29T08:39:09.151Z,70.80
2022-11-29T08:41:41.969Z,75.13
2022-11-29T08:44:18.471Z,80.03
2022-11-29T08:47:05.225Z,69.78
2022-11-29T08:49:56.754Z,70.43
2022-11-29T08:52:41.055Z,75.80
2022-11-29T08:55:12.864Z,71.35
2022-11-29T08:57:45.082Z,72.57
2022-11-29T09:00:17.945Z,71.53
2022-11-29T09:02:52.836Z,72.03
2022-11-29T09:05:24.166Z,68.40
2022-11-29T09:07:56.214Z,69.65
2022-11-29T09:10:28.098Z,71.13
2022-11-29T09:13:00.020Z,67.70
2022-11-29T09:15:31.723Z,71.13
2022-11-29T09:18:07.296Z,72.47
2022-11-29T09:20:38.964Z,66.72
2022-11-29T09:23:10.902Z,76.95
2022-11-29T09:25:42.453Z,79.57
2022-11-29T09:28:14.522Z,71.97
2022-11-29T09:30:47.196Z,70.80
2022-11-29T09:33:21.574Z,67.47
2022-11-29T09:35:52.806Z,67.68
2022-11-29T09:38:24.678Z,67.22
2022-11-29T09:41:02.324Z,62.78
2022-11-29T09:43:42.656Z,67.20
2022-11-29T09:46:22.801Z,72.93
2022-11-29T09:49:32.698Z,73.75
2022-11-29T09:52:12.018Z,71.03
2022-11-29T09:54:55.461Z,64.72
2022-11-29T09:57:28.738Z,64.43
2022-11-29T10:00:05.497Z,65.53
2022-11-29T10:02:45.819Z,69.47
2022-11-29T10:05:28.905Z,63.72
2022-11-29T10:08:06.219Z,69.75
2022-11-29T10:10:44.059Z,63.25
2022-11-29T10:13:23.778Z,66.18
2022-11-29T10:16:00.337Z,67.63
2022-11-29T10:18:37.538Z,67.05
2022-11-29T10:21:17.787Z,68.78
2022-11-29T10:23:53.139Z,67.93
2022-11-29T10:26:37.177Z,66.53
2022-11-29T10:29:09.857Z,65.93
2022-11-29T10:31:45.218Z,70.57
2022-11-29T10:34:20.176Z,70.88
2022-11-29T10:37:00.136Z,65.47
2022-11-29T10:39:40.188Z,70.68
2022-11-29T10:42:31.135Z,69.90
2022-11-29T10:45:03.817Z,66.05
2022-11-29T10:47:37.145Z,69.90
2022-11-29T10:50:11.037Z,65.32
2022-11-29T10:52:46.798Z,71.53
2022-11-29T10:55:20.592Z,71.05
2022-11-29T10:58:12.629Z,68.22
2022-11-29T11:00:57.809Z,69.40
2022-11-29T11:03:40.552Z,76.88
2022-11-29T11:06:16.437Z,76.45
2022-11-29T11:08:55.590Z,72.70
2022-11-29T11:11:30.590Z,69.72
2022-11-29T11:14:05.308Z,75.43
2022-11-29T11:16:37.870Z,68.47
2022-11-29T11:19:29.760Z,71.43
2022-11-29T11:22:03.883Z,72.60
2022-11-29T11:24:44.034Z,75.82
2022-11-29T11:27:16.440Z,76.10
2022-11-29T11:29:49.321Z,70.97
2022-11-29T11:32:23.319Z,74.82
2022-11-29T11:34:57.563Z,71.75
2022-11-29T11:37:32.081Z,74.13
2022-11-29T11:40:29.537Z,73.20
2022-11-29T11:43:05.563Z,70.53
2022-11-29T11:45:39.853Z,64.57
2022-11-29T11:48:17.960Z,70.88
2022-11-29T11:50:56.809Z,71.10
2022-11-29T11:53:36.376Z,75.88
2022-11-29T11:56:16.362Z,76.22
2022-11-29T11:58:53.083Z,77.28
2022-11-29T12:01:32.721Z,68.18
2022-11-29T12:04:08.561Z,72.25
2022-11-29T12:06:54.924Z,75.07
2022-11-29T12:09:36.243Z,79.35
2022-11-29T12:12:18.083Z,78.10
2022-11-29T12:14:59.283Z,76.20
2022-11-29T12:17:38.602Z,71.97
2022-11-29T12:20:22.763Z,92.07
2022-11-29T12:23:09.852Z,100.47
2022-11-29T12:25:48.387Z,78.75
2022-11-29T12:28:26.770Z,84.47
2022-11-29T12:31:09.709Z,71.18
2022-11-29T12:33:52.523Z,75.90
2022-11-29T12:36:37.241Z,82.10
2022-11-29T12:39:28.763Z,77.55
2022-11-29T12:42:07.130Z,82.53
2022-11-29T12:44:54.603Z,78.82
2022-11-29T12:47:42.440Z,76.45
2022-11-29T12:50:29.922Z,74.53
2022-11-29T12:53:14.241Z,81.57
2022-11-29T12:55:57.441Z,77.97
2022-11-29T12:58:45.640Z,76.90
2022-11-29T13:01:28.961Z,77.72
2022-11-29T13:04:13.125Z,76.78
2022-11-29T13:06:53.444Z,80.53
2022-11-29T13:09:47.990Z,81.85
2022-11-29T13:12:29.550Z,81.85
2022-11-29T13:15:10.939Z,77.10
2022-11-29T13:17:50.797Z,84.53
2022-11-29T13:20:35.208Z,83.28
2022-11-29T13:23:17.932Z,83.03
2022-11-29T13:25:54.735Z,77.43
2022-11-29T13:28:30.740Z,82.40
2022-11-29T13:31:08.060Z,78.10
2022-11-29T13:33:57.429Z,77.82
2022-11-29T13:36:40.728Z,78.38
2022-11-29T13:39:29.170Z,77.65
2022-11-29T13:42:08.302Z,86.25
2022-11-29T13:44:48.427Z,78.45
2022-11-29T13:47:22.113Z,87.18
2022-11-29T13:50:02.557Z,83.43
2022-11-29T13:52:45.788Z,84.93
2022-11-29T13:55:30.478Z,79.25
2022-11-29T13:58:18.041Z,79.90
2022-11-29T14:00:55.846Z,77.75
2022-11-29T14:03:35.408Z,79.97
2022-11-29T14:06:21.645Z,83.45
2022-11-29T14:09:23.076Z,87.72
2022-11-29T14:12:02.740Z,83.40
2022-11-29T14:14:40.563Z,78.82
2022-11-29T14:17:38.162Z,87.03
2022-11-29T14:20:54.506Z,80.20
2022-11-29T14:23:46.985Z,94.85
2022-11-29T14:26:39.801Z,85.20
2022-11-29T14:29:56.130Z,77.32
2022-11-29T14:32:41.549Z,80.70
2022-11-29T14:35:25.932Z,89.45
2022-11-29T14:38:08.230Z,87.28
2022-11-29T14:40:53.250Z,95.20
2022-11-29T14:43:33.288Z,85.85
2022-11-29T14:46:12.085Z,94.05
2022-11-29T14:48:48.731Z,91.55
2022-11-29T14:51:23.254Z,94.22
2022-11-29T14:54:08.289Z,90.15
2022-11-29T14:56:45.859Z,93.90
2022-11-29T14:59:44.213Z,90.75
2022-11-29T15:02:35.864Z,87.95
2022-11-29T15:05:18.169Z,90.95
2022-11-29T15:07:56.604Z,91.57
2022-11-29T15:13:32.931Z,81.95
2022-11-29T15:16:25.663Z,86.97
2022-11-29T15:19:32.251Z,89.90
2022-11-29T15:22:21.412Z,94.82
2022-11-29T15:24:58.771Z,96.15
2022-11-29T15:27:31.050Z,88.18
2022-11-29T15:30:22.131Z,90.10
2022-11-29T15:32:54.289Z,85.28
2022-11-29T15:35:27.128Z,109.38
2022-11-29T15:37:59.851Z,88.30
2022-11-29T15:40:41.851Z,86.43
2022-11-29T15:43:27.330Z,94.22
2022-11-29T15:46:06.625Z,93.40
2022-11-29T15:48:39.615Z,95.47
2022-11-29T15:51:22.609Z,90.20
2022-11-29T15:54:12.096Z,87.97
2022-11-29T15:56:52.450Z,92.18
2022-11-29T15:59:34.210Z,92.07
2022-11-29T16:02:24.334Z,100.75
2022-11-29T16:05:04.323Z,103.38
2022-11-29T16:07:37.642Z,103.90
2022-11-29T16:10:16.087Z,102.25
2022-11-29T16:12:56.858Z,102.57
2022-11-29T16:15:35.102Z,97.15
2022-11-29T16:18:16.622Z,102.45
2022-11-29T16:21:04.396Z,107.22
2022-11-29T16:23:36.935Z,108.28
2022-11-29T16:26:16.023Z,97.95
2022-11-29T16:28:50.809Z,119.38
2022-11-29T16:31:25.309Z,115.13
2022-11-29T16:34:00.312Z,107.05
2022-11-29T16:36:31.576Z,102.43
2022-11-29T16:39:08.969Z,105.25
2022-11-29T16:41:44.264Z,104.82
2022-11-29T16:45:03.463Z,110.55
2022-11-29T16:47:49.502Z,110.15
2022-11-29T16:50:25.215Z,112.85
2022-11-29T16:52:57.428Z,118.72
2022-11-29T16:55:28.995Z,112.32
2022-11-29T16:58:03.050Z,110.43
2022-11-29T17:00:38.475Z,109.57
2022-11-29T17:03:09.565Z,105.75
2022-11-29T17:05:45.703Z,98.45
2022-11-29T17:08:16.898Z,105.90
2022-11-29T17:10:48.745Z,105.97
2022-11-29T17:13:22.263Z,112.15
2022-11-29T17:15:53.890Z,110.25
2022-11-29T17:18:28.089Z,103.70
2022-11-29T17:21:02.330Z,112.85
2022-11-29T17:23:35.403Z,111.97
2022-11-29T17:26:07.770Z,112.80
2022-11-29T17:28:43.006Z,107.18
2022-11-29T17:31:21.052Z,108.55
2022-11-29T17:33:52.624Z,108.95
2022-11-29T17:36:27.608Z,100.07
2022-11-29T17:38:59.331Z,105.38
2022-11-29T17:41:33.301Z,111.90
2022-11-29T17:44:04.944Z,104.40
2022-11-29T17:46:39.466Z,103.32
2022-11-29T17:49:12.670Z,99.68
2022-11-29T17:51:52.128Z,104.10
2022-11-29T17:54:29.077Z,100.88
2022-11-29T17:57:01.836Z,100.57
2022-11-29T17:59:33.839Z,95.88
2022-11-29T18:02:07.419Z,99.63
2022-11-29T18:04:42.613Z,98.60
2022-11-29T18:07:18.440Z,99.80
2022-11-29T18:09:52.295Z,98.82
2022-11-29T18:12:24.794Z,108.30
2022-11-29T18:14:56.613Z,99.78
2022-11-29T18:17:28.511Z,92.78
2022-11-29T18:20:00.246Z,97.75
2022-11-29T18:22:35.233Z,94.97
2022-11-29T18:25:37.754Z,97.75
2022-11-29T18:28:02.501Z,93.15
2022-11-29T18:30:33.892Z,93.82
2022-11-29T18:33:05.876Z,91.40
2022-11-29T18:35:38.325Z,92.72
2022-11-29T18:38:16.133Z,100.05
2022-11-29T18:40:48.793Z,93.88
2022-11-29T18:43:20.894Z,86.28
2022-11-29T18:45:52.714Z,89.13
2022-11-29T18:48:24.708Z,93.03
2022-11-29T18:50:56.285Z,94.45
2022-11-29T18:53:32.307Z,87.10
2022-11-29T18:56:05.653Z,87.70
2022-11-29T18:58:38.319Z,93.90
2022-11-29T19:01:12.541Z,102.32
2022-11-29T19:03:49.313Z,90.55
2022-11-29T19:06:22.571Z,90.38
2022-11-29T19:09:01.370Z,93.40
2022-11-29T19:11:35.615Z,92.78
2022-11-29T19:14:13.493Z,95.07
2022-11-29T19:16:48.320Z,102.03
2022-11-29T19:19:22.689Z,93.82
2022-11-29T19:21:54.154Z,93.97
2022-11-29T19:24:29.333Z,100.78
2022-11-29T19:27:01.538Z,105.82
2022-11-29T19:29:53.254Z,97.40
2022-11-29T19:32:25.236Z,91.47
2022-11-29T19:34:57.575Z,92.78
2022-11-29T19:37:29.255Z,102.28
2022-11-29T19:40:04.428Z,90.78
2022-11-29T19:42:37.849Z,95.25
2022-11-29T19:45:18.880Z,95.53
2022-11-29T19:47:51.069Z,95.65
2022-11-29T19:50:24.649Z,99.20
2022-11-29T19:52:57.312Z,96.38
2022-11-29T19:55:39.379Z,102.55
2022-11-29T19:58:13.798Z,100.28
2022-11-29T20:00:45.560Z,94.65
2022-11-29T20:03:17.352Z,94.93
2022-11-29T20:05:58.215Z,99.32
2022-11-29T20:08:30.106Z,102.30
2022-11-29T20:11:12.651Z,102.05
2022-11-29T20:13:50.091Z,108.20
2022-11-29T20:19:49.266Z,99.38
2022-11-29T20:22:21.940Z,96.65
2022-11-29T20:24:56.497Z,100.03
2022-11-29T20:27:31.389Z,96.82
2022-11-29T20:30:03.833Z,101.63
2022-11-29T20:32:38.411Z,104.93
2022-11-29T20:35:12.576Z,98.43
2022-11-29T20:38:15.533Z,100.13
2022-11-29T20:41:02.667Z,94.00
2022-11-29T20:43:47.754Z,100.20
2022-11-29T20:46:20.564Z,106.68
2022-11-29T20:48:53.513Z,100.05
2022-11-29T20:51:30.623Z,99.68
2022-11-29T20:54:03.112Z,105.43
2022-11-29T20:56:35.393Z,96.13
2022-11-29T20:59:10.556Z,102.93
2022-11-29T21:01:42.735Z,102.03
2022-11-29T21:04:18.841Z,96.00
2022-11-29T21:06:53.879Z,96.70
2022-11-29T21:09:28.428Z,104.22
2022-11-29T21:12:01.631Z,100.68
2022-11-29T21:14:37.750Z,101.93
2022-11-29T21:17:11.697Z,102.38
2022-11-29T21:19:44.900Z,106.03
2022-11-29T21:22:24.974Z,102.95
2022-11-29T21:25:06.653Z,107.72
2022-11-29T21:27:39.733Z,101.30
2022-11-29T21:30:22.083Z,98.60
2022-11-29T21:32:55.222Z,104.15
2022-11-29T21:35:27.581Z,104.72
2022-11-29T21:38:02.713Z,105.25
2022-11-29T21:40:35.275Z,102.72
2022-11-29T21:43:07.393Z,107.63
2022-11-29T21:45:42.455Z,107.28
2022-11-29T21:48:26.612Z,111.63
2022-11-29T21:50:59.492Z,110.93
2022-11-29T21:53:31.592Z,106.63
2022-11-29T21:56:05.890Z,104.97
2022-11-29T21:58:39.571Z,116.80
2022-11-29T22:01:18.020Z,109.45
2022-11-29T22:03:50.875Z,108.38
2022-11-29T22:06:24.512Z,112.75
2022-11-29T22:08:56.571Z,108.95
2022-11-29T22:11:35.981Z,110.22
2022-11-29T22:14:19.532Z,107.90
2022-11-29T22:16:56.873Z,113.03
2022-11-29T22:19:31.179Z,109.40
2022-11-29T22:22:06.380Z,106.35
2022-11-29T22:24:40.833Z,106.80
2022-11-29T22:27:13.357Z,106.65
2022-11-29T22:29:45.694Z,107.75
2022-11-29T22:32:20.873Z,107.03
2022-11-29T22:34:53.057Z,109.40
2022-11-29T22:37:25.541Z,104.95
2022-11-29T22:39:57.963Z,110.43
2022-11-29T22:42:30.473Z,112.75
2022-11-29T22:45:04.342Z,118.95
2022-11-29T22:47:39.532Z,110.28
2022-11-29T22:50:13.213Z,112.22
2022-11-29T22:52:45.816Z,110.97
2022-11-29T22:55:17.992Z,107.55
2022-11-29T22:57:50.531Z,110.10
2022-11-29T23:00:22.991Z,113.63
2022-11-29T23:02:59.754Z,105.80
2022-11-29T23:05:32.537Z,112.45
2022-11-29T23:08:05.052Z,114.82
2022-11-29T23:10:37.292Z,107.22
2022-11-29T23:13:09.552Z,108.32
2022-11-29T23:15:41.853Z,112.47
2022-11-29T23:18:17.193Z,110.97
2022-11-29T23:20:49.254Z,112.20
2022-11-29T23:23:22.089Z,106.90
2022-11-29T23:25:54.213Z,114.03
2022-11-29T23:28:26.894Z,108.75
2022-11-29T23:30:59.533Z,109.13
2022-11-29T23:33:34.773Z,106.78
2022-11-29T23:36:10.102Z,111.63
2022-11-29T23:38:42.656Z,106.03
2022-11-29T23:41:16.733Z,114.43
2022-11-29T23:43:49.273Z,113.30
2022-11-29T23:46:37.393Z,110.70
2022-11-29T23:49:12.451Z,116.53
2022-11-29T23:51:44.592Z,109.95
2022-11-29T23:54:17.234Z,112.88
2022-11-29T23:56:49.441Z,110.88
2022-11-29T23:59:22.265Z,110.93
